createdAt,value
2023-01-22T05:01:10.641Z,33.47
2023-01-22T05:03:42.286Z,36.50
2023-01-22T05:06:13.945Z,31.40
2023-01-22T05:08:45.571Z,28.50
2023-01-22T05:11:17.368Z,31.33
2023-01-22T05:16:25.894Z,33.70
2023-01-22T05:18:57.543Z,29.90
2023-01-22T05:21:29.221Z,29.13
2023-01-22T05:24:00.861Z,29.57
2023-01-22T05:26:32.531Z,28.90
2023-01-22T05:29:04.176Z,29.00
2023-01-22T05:31:37.255Z,29.33
2023-01-22T05:34:08.918Z,29.53
2023-01-22T05:36:40.621Z,27.50
2023-01-22T05:39:12.252Z,28.83
2023-01-22T05:41:44.058Z,29.50
2023-01-22T05:44:15.702Z,27.17
2023-01-22T05:46:48.702Z,26.10
2023-01-22T05:49:20.348Z,28.00
2023-01-22T05:51:52.028Z,25.30
2023-01-22T05:54:23.722Z,24.50
2023-01-22T05:56:55.369Z,25.47
2023-01-22T05:59:27.089Z,28.43
2023-01-22T06:02:00.082Z,25.63
2023-01-22T06:04:31.733Z,25.97
2023-01-22T06:07:03.388Z,25.67
2023-01-22T06:09:35.032Z,27.43
2023-01-22T06:12:07.170Z,23.90
2023-01-22T06:14:38.796Z,27.07
2023-01-22T06:17:11.817Z,29.13
2023-01-22T06:19:43.462Z,24.73
2023-01-22T06:22:15.182Z,29.17
2023-01-22T06:24:46.836Z,28.20
2023-01-22T06:27:18.491Z,27.47
2023-01-22T06:29:50.122Z,27.53
2023-01-22T06:32:23.135Z,27.10
2023-01-22T06:34:54.783Z,31.20
2023-01-22T06:37:26.452Z,26.63
2023-01-22T06:39:58.118Z,25.47
2023-01-22T06:42:29.785Z,33.03
2023-01-22T06:45:01.426Z,28.00
2023-01-22T06:47:34.442Z,27.53
2023-01-22T06:50:06.610Z,26.30
2023-01-22T06:52:38.316Z,24.20
2023-01-22T06:55:09.980Z,27.43
2023-01-22T06:57:41.669Z,25.10
2023-01-22T07:00:14.029Z,24.87
2023-01-22T07:02:47.036Z,27.63
2023-01-22T07:05:18.684Z,25.70
2023-01-22T07:07:52.851Z,27.00
2023-01-22T07:10:24.523Z,25.80
2023-01-22T07:12:56.529Z,30.87
2023-01-22T07:15:28.241Z,27.13
2023-01-22T07:18:01.312Z,25.83
2023-01-22T07:20:32.967Z,28.70
2023-01-22T07:23:04.626Z,25.63
2023-01-22T07:25:36.273Z,25.70
2023-01-22T07:28:07.995Z,29.13
2023-01-22T07:30:39.765Z,26.20
2023-01-22T07:33:13.051Z,26.57
2023-01-22T07:35:44.915Z,26.27
2023-01-22T07:38:16.565Z,27.80
2023-01-22T07:40:48.228Z,26.93
2023-01-22T07:43:19.873Z,27.07
2023-01-22T07:45:51.574Z,27.07
2023-01-22T07:48:24.673Z,27.53
2023-01-22T07:50:59.022Z,23.00
2023-01-22T07:53:30.705Z,24.73
2023-01-22T07:56:02.410Z,26.47
2023-01-22T07:58:34.108Z,25.73
2023-01-22T08:01:06.043Z,22.27
2023-01-22T08:03:39.172Z,23.80
2023-01-22T08:06:11.603Z,22.97
2023-01-22T08:08:43.295Z,25.13
2023-01-22T08:11:15.109Z,24.30
2023-01-22T08:13:46.789Z,23.70
2023-01-22T08:16:18.475Z,25.73
2023-01-22T08:18:51.521Z,25.60
2023-01-22T08:21:23.203Z,26.03
2023-01-22T08:23:55.238Z,23.93
2023-01-22T08:26:26.888Z,25.67
2023-01-22T08:28:58.606Z,25.17
2023-01-22T08:31:30.380Z,25.43
2023-01-22T08:34:03.497Z,23.17
2023-01-22T08:36:35.180Z,24.13
2023-01-22T08:39:06.827Z,26.97
2023-01-22T08:41:38.494Z,23.33
2023-01-22T08:44:12.174Z,24.20
2023-01-22T08:46:43.856Z,22.30
2023-01-22T08:49:16.894Z,23.27
2023-01-22T08:51:48.572Z,24.10
2023-01-22T08:54:20.241Z,23.27
2023-01-22T08:56:51.927Z,23.73
2023-01-22T08:59:23.868Z,22.50
2023-01-22T09:01:57.300Z,21.83
2023-01-22T09:04:30.312Z,21.73
2023-01-22T09:07:01.996Z,24.63
2023-01-22T09:09:33.649Z,20.20
2023-01-22T09:12:05.563Z,20.03
2023-01-22T09:14:37.190Z,17.90
2023-01-22T09:17:09.021Z,19.77
2023-01-22T09:19:42.029Z,20.43
2023-01-22T09:22:13.695Z,22.93
2023-01-22T09:24:45.381Z,21.77
2023-01-22T09:27:17.126Z,17.50
2023-01-22T09:29:48.771Z,22.37
2023-01-22T09:32:20.413Z,19.83
2023-01-22T09:34:53.408Z,19.77
2023-01-22T09:37:25.060Z,20.37
2023-01-22T09:39:56.712Z,23.30
2023-01-22T09:42:30.285Z,19.40
2023-01-22T09:45:04.270Z,21.93
2023-01-22T09:47:37.041Z,19.33
2023-01-22T09:50:13.909Z,21.60
2023-01-22T09:52:45.566Z,24.47
2023-01-22T09:55:18.106Z,24.93
2023-01-22T09:57:51.784Z,23.77
2023-01-22T10:00:24.416Z,26.17
2023-01-22T10:02:57.989Z,26.80
2023-01-22T10:05:32.979Z,22.30
2023-01-22T10:08:05.727Z,25.33
2023-01-22T10:10:37.377Z,20.00
2023-01-22T10:13:15.221Z,23.67
2023-01-22T10:15:47.011Z,19.87
2023-01-22T10:18:28.991Z,19.90
2023-01-22T10:21:03.468Z,24.10
2023-01-22T10:23:35.129Z,19.33
2023-01-22T10:26:14.955Z,19.13
2023-01-22T10:28:48.560Z,20.60
2023-01-22T10:31:24.107Z,17.93
2023-01-22T10:33:57.272Z,18.93
2023-01-22T10:36:30.703Z,20.77
2023-01-22T10:39:06.662Z,17.27
2023-01-22T10:41:38.310Z,18.83
2023-01-22T10:44:16.487Z,20.10
2023-01-22T10:46:48.238Z,19.67
2023-01-22T10:49:21.291Z,18.27
2023-01-22T10:51:55.983Z,18.30
2023-01-22T10:54:29.637Z,18.00
2023-01-22T10:57:05.359Z,19.57
2023-01-22T10:59:37.038Z,18.73
2023-01-22T11:02:15.020Z,18.13
2023-01-22T11:04:46.689Z,18.40
2023-01-22T11:07:20.775Z,18.90
2023-01-22T11:09:55.091Z,19.80
2023-01-22T11:12:28.756Z,19.80
2023-01-22T11:15:03.904Z,22.30
2023-01-22T11:17:37.761Z,20.23
2023-01-22T11:20:15.617Z,19.70
2023-01-22T11:22:53.854Z,21.83
2023-01-22T11:25:25.950Z,18.93
2023-01-22T11:28:02.545Z,21.53
2023-01-22T11:30:48.891Z,20.77
2023-01-22T11:33:27.684Z,20.30
2023-01-22T11:36:01.320Z,19.80
2023-01-22T11:38:38.448Z,20.27
2023-01-22T11:41:20.446Z,18.07
2023-01-22T11:44:10.466Z,21.50
2023-01-22T11:46:54.476Z,21.53
2023-01-22T11:49:31.854Z,20.97
2023-01-22T11:52:10.733Z,20.23
2023-01-22T11:55:06.545Z,20.23
2023-01-22T11:57:40.149Z,15.83
2023-01-22T12:00:27.367Z,16.13
2023-01-22T12:03:21.042Z,18.57
2023-01-22T12:05:57.965Z,22.37
2023-01-22T12:08:38.614Z,19.97
2023-01-22T12:11:16.945Z,21.83
2023-01-22T12:14:13.457Z,20.73
2023-01-22T12:16:49.958Z,22.23
2023-01-22T12:19:34.513Z,22.07
2023-01-22T12:22:08.724Z,23.57
2023-01-22T12:24:41.895Z,22.97
2023-01-22T12:27:16.088Z,26.23
2023-01-22T12:29:49.586Z,22.37
2023-01-22T12:32:21.268Z,24.97
2023-01-22T12:34:55.138Z,25.20
2023-01-22T12:37:28.887Z,24.43
2023-01-22T12:40:10.264Z,28.23
2023-01-22T12:42:45.654Z,24.93
2023-01-22T12:45:19.489Z,22.87
2023-01-22T12:47:56.425Z,24.27
2023-01-22T12:50:28.094Z,24.90
2023-01-22T12:52:59.965Z,23.40
2023-01-22T12:55:32.667Z,24.00
2023-01-22T12:58:16.287Z,24.10
2023-01-22T13:00:58.395Z,24.60
2023-01-22T13:03:32.489Z,25.80
2023-01-22T13:06:20.098Z,24.40
2023-01-22T13:08:51.772Z,22.63
2023-01-22T13:11:29.102Z,23.37
2023-01-22T13:14:15.234Z,23.03
2023-01-22T13:16:52.105Z,22.93
2023-01-22T13:19:24.861Z,23.77
2023-01-22T13:21:57.487Z,23.07
2023-01-22T13:24:29.133Z,23.87
2023-01-22T13:27:01.723Z,23.70
2023-01-22T13:29:35.568Z,23.63
2023-01-22T13:32:16.047Z,23.20
2023-01-22T13:34:47.685Z,23.37
2023-01-22T13:37:22.641Z,24.13
2023-01-22T13:39:54.285Z,23.67
2023-01-22T13:42:25.954Z,20.53
2023-01-22T13:44:58.922Z,22.83
2023-01-22T13:47:32.161Z,19.70
2023-01-22T13:50:04.284Z,22.00
2023-01-22T13:52:36.168Z,21.80
2023-01-22T13:55:12.183Z,20.03
2023-01-22T13:57:47.374Z,19.97
2023-01-22T14:00:25.397Z,18.13
2023-01-22T14:02:57.313Z,17.90
2023-01-22T14:05:29.931Z,14.90
2023-01-22T14:08:05.164Z,15.27
2023-01-22T14:10:37.051Z,14.03
2023-01-22T14:13:10.000Z,14.07
2023-01-22T14:15:42.965Z,12.30
2023-01-22T14:18:15.651Z,14.70
2023-01-22T14:20:47.654Z,13.87
2023-01-22T14:23:19.289Z,12.30
2023-01-22T14:25:51.672Z,15.70
2023-01-22T14:28:23.982Z,13.00
2023-01-22T14:30:57.032Z,13.57
2023-01-22T14:33:30.145Z,17.27
2023-01-22T14:36:01.814Z,20.50
2023-01-22T14:38:33.456Z,21.70
2023-01-22T14:41:05.376Z,22.40
2023-01-22T14:43:37.010Z,23.33
2023-01-22T14:46:10.086Z,26.83
2023-01-22T14:48:41.741Z,27.00
2023-01-22T14:51:14.631Z,24.27
2023-01-22T14:53:46.301Z,23.97
2023-01-22T14:56:17.943Z,25.27
2023-01-22T14:58:49.580Z,27.00
2023-01-22T15:01:22.700Z,22.77
2023-01-22T15:03:54.381Z,21.03
2023-01-22T15:06:26.037Z,16.77
2023-01-22T15:08:57.729Z,14.50
2023-01-22T15:11:29.382Z,18.13
2023-01-22T15:14:01.014Z,16.87
2023-01-22T15:16:34.044Z,18.83
2023-01-22T15:19:05.722Z,14.47
2023-01-22T15:21:37.378Z,13.87
2023-01-22T15:24:09.326Z,16.93
2023-01-22T15:26:41.657Z,18.47
2023-01-22T15:29:13.676Z,17.20
2023-01-22T15:31:49.101Z,18.57
2023-01-22T15:34:20.784Z,19.60
2023-01-22T15:36:52.441Z,17.33
2023-01-22T15:39:24.089Z,17.33
2023-01-22T15:41:55.834Z,18.10
2023-01-22T15:44:27.486Z,16.83
2023-01-22T15:47:00.489Z,17.83
2023-01-22T15:49:32.168Z,20.13
2023-01-22T15:52:04.052Z,20.40
2023-01-22T15:54:35.680Z,20.00
2023-01-22T15:57:07.342Z,22.33
2023-01-22T15:59:38.979Z,27.57
2023-01-22T16:02:11.995Z,30.00
2023-01-22T16:04:43.690Z,29.10
2023-01-22T16:07:15.345Z,32.70
2023-01-22T16:09:46.973Z,31.77
2023-01-22T16:12:18.628Z,34.83
2023-01-22T16:14:50.247Z,35.13
2023-01-22T16:17:23.239Z,31.63
2023-01-22T16:19:54.928Z,35.47
2023-01-22T16:22:26.598Z,37.25
2023-01-22T16:24:58.234Z,34.50
2023-01-22T16:27:29.882Z,34.93
2023-01-22T16:30:01.654Z,39.27
2023-01-22T16:32:34.722Z,35.47
2023-01-22T16:35:07.050Z,33.43
2023-01-22T16:37:38.723Z,33.93
2023-01-22T16:40:11.694Z,36.90
2023-01-22T16:42:53.771Z,34.30
2023-01-22T16:45:25.422Z,35.27
2023-01-22T16:47:58.477Z,32.13
2023-01-22T16:50:30.162Z,36.47
2023-01-22T16:53:01.817Z,35.20
2023-01-22T16:55:33.456Z,34.33
2023-01-22T16:58:05.176Z,32.47
2023-01-22T17:00:36.826Z,33.23
2023-01-22T17:03:09.835Z,34.90
2023-01-22T17:05:41.517Z,35.03
2023-01-22T17:08:13.208Z,38.10
2023-01-22T17:10:44.873Z,30.33
2023-01-22T17:13:16.525Z,28.17
2023-01-22T17:15:48.191Z,31.33
2023-01-22T17:18:21.215Z,28.37
2023-01-22T17:21:01.821Z,32.10
2023-01-22T17:23:34.160Z,32.63
2023-01-22T17:26:07.003Z,35.90
2023-01-22T17:28:38.687Z,32.87
2023-01-22T17:31:12.302Z,32.73
2023-01-22T17:33:45.349Z,36.70
2023-01-22T17:36:17.417Z,36.90
2023-01-22T17:38:49.048Z,37.37
2023-01-22T17:41:21.336Z,40.90
2023-01-22T17:43:53.367Z,42.87
2023-01-22T17:46:26.340Z,37.20
2023-01-22T17:48:59.525Z,40.63
2023-01-22T17:51:32.974Z,39.70
2023-01-22T17:54:04.668Z,38.10
2023-01-22T17:56:37.410Z,40.57
2023-01-22T17:59:09.813Z,39.20
2023-01-22T18:01:41.566Z,37.60
2023-01-22T18:04:14.638Z,39.80
2023-01-22T18:06:46.320Z,41.27
2023-01-22T18:09:17.962Z,40.90
2023-01-22T18:11:49.641Z,38.23
2023-01-22T18:14:21.299Z,38.30
2023-01-22T18:16:52.985Z,42.07
2023-01-22T18:19:26.081Z,41.97
2023-01-22T18:21:57.755Z,40.13
2023-01-22T18:24:29.415Z,40.90
2023-01-22T18:27:01.075Z,41.80
2023-01-22T18:29:32.696Z,41.43
2023-01-22T18:32:04.996Z,38.63
2023-01-22T18:34:38.001Z,41.13
2023-01-22T18:37:09.670Z,37.60
2023-01-22T18:39:41.296Z,39.30
2023-01-22T18:42:12.970Z,39.93
2023-01-22T18:44:44.758Z,37.40
2023-01-22T18:47:16.878Z,35.37
2023-01-22T18:49:50.685Z,40.27
2023-01-22T18:52:22.359Z,38.30
2023-01-22T18:54:53.997Z,36.97
2023-01-22T18:57:25.712Z,38.37
2023-01-22T18:59:57.375Z,35.30
2023-01-22T19:02:29.021Z,34.67
2023-01-22T19:05:02.151Z,36.07
2023-01-22T19:07:33.804Z,36.50
2023-01-22T19:10:06.497Z,30.63
2023-01-22T19:12:38.261Z,33.07
2023-01-22T19:15:10.398Z,33.03
2023-01-22T19:17:42.062Z,36.93
2023-01-22T19:20:15.387Z,38.47
2023-01-22T19:22:47.138Z,37.50
2023-01-22T19:25:19.040Z,37.07
2023-01-22T19:27:50.839Z,38.00
2023-01-22T19:30:22.689Z,37.10
2023-01-22T19:32:54.446Z,42.17
2023-01-22T19:35:27.784Z,38.10
2023-01-22T19:37:59.452Z,33.47
2023-01-22T19:40:31.096Z,36.73
2023-01-22T19:43:02.815Z,37.90
2023-01-22T19:45:35.841Z,34.20
2023-01-22T19:48:07.480Z,34.60
2023-01-22T19:50:41.561Z,39.53
2023-01-22T19:53:13.367Z,35.07
2023-01-22T19:55:45.044Z,35.07
2023-01-22T19:58:16.844Z,35.37
2023-01-22T20:00:48.484Z,35.73
2023-01-22T20:03:20.239Z,30.63
2023-01-22T20:05:53.235Z,36.67
2023-01-22T20:08:24.886Z,32.77
2023-01-22T20:10:59.710Z,33.27
2023-01-22T20:13:31.561Z,38.23
2023-01-22T20:16:03.696Z,32.47
2023-01-22T20:18:35.358Z,36.00
2023-01-22T20:21:09.449Z,37.40
2023-01-22T20:23:41.070Z,33.87
2023-01-22T20:26:13.038Z,38.00
2023-01-22T20:28:44.735Z,35.77
2023-01-22T20:31:17.906Z,35.77
2023-01-22T20:33:49.833Z,41.57
2023-01-22T20:36:23.145Z,38.17
2023-01-22T20:38:54.927Z,43.33
2023-01-22T20:41:26.596Z,43.20
2023-01-22T20:43:58.271Z,49.13
2023-01-22T20:46:29.947Z,48.70
2023-01-22T20:49:01.593Z,45.97
2023-01-22T20:51:34.667Z,45.10
2023-01-22T20:54:06.310Z,51.93
2023-01-22T20:56:38.126Z,46.40
2023-01-22T20:59:11.046Z,48.23
2023-01-22T21:01:42.765Z,45.23
2023-01-22T21:04:14.506Z,51.03
2023-01-22T21:06:47.506Z,49.50
2023-01-22T21:09:19.149Z,50.87
2023-01-22T21:11:50.908Z,53.90
2023-01-22T21:14:22.548Z,43.87
2023-01-22T21:16:54.229Z,44.87
2023-01-22T21:19:26.257Z,46.00
2023-01-22T21:21:59.281Z,46.03
2023-01-22T21:24:30.977Z,47.77
2023-01-22T21:27:02.784Z,44.77
2023-01-22T21:29:34.421Z,44.53
2023-01-22T21:32:06.082Z,52.20
2023-01-22T21:34:37.722Z,47.73
2023-01-22T21:37:10.698Z,42.83
2023-01-22T21:39:42.458Z,43.53
2023-01-22T21:42:14.145Z,54.67
2023-01-22T21:44:45.823Z,49.53
2023-01-22T21:47:20.110Z,49.07
2023-01-22T21:49:51.874Z,51.13
2023-01-22T21:52:24.974Z,50.70
2023-01-22T21:54:56.626Z,45.57
2023-01-22T21:57:28.312Z,47.07
2023-01-22T21:59:59.993Z,49.03
2023-01-22T22:02:31.717Z,44.07
2023-01-22T22:05:03.589Z,43.43
2023-01-22T22:07:36.620Z,39.67
2023-01-22T22:10:09.219Z,47.13
2023-01-22T22:12:40.903Z,46.40
2023-01-22T22:15:12.915Z,44.23
2023-01-22T22:17:44.697Z,41.63
2023-01-22T22:20:17.285Z,47.70
2023-01-22T22:22:50.376Z,42.83
2023-01-22T22:25:22.073Z,43.77
2023-01-22T22:27:55.352Z,42.57
2023-01-22T22:30:27.074Z,45.47
2023-01-22T22:32:58.739Z,45.80
2023-01-22T22:35:30.560Z,46.00
2023-01-22T22:38:03.596Z,49.63
2023-01-22T22:40:35.242Z,46.77
2023-01-22T22:43:06.903Z,42.40
2023-01-22T22:45:38.622Z,42.63
2023-01-22T22:48:10.318Z,44.67
2023-01-22T22:50:41.985Z,45.13
2023-01-22T22:53:14.999Z,49.10
2023-01-22T22:55:46.626Z,42.07
2023-01-22T22:58:18.361Z,47.63
